createdAt,value
2024-05-09T00:00:57.972Z,102334.38
2024-05-09T00:03:00.892Z,102328.03
2024-05-09T00:05:03.218Z,102331.81
2024-05-09T00:07:05.064Z,102330.09
2024-05-09T00:09:06.772Z,102329.25
2024-05-09T00:11:08.621Z,102335.75
2024-05-09T00:13:11.384Z,102337.66
2024-05-09T00:15:13.281Z,102329.25
2024-05-09T00:17:15.115Z,102328.97
2024-05-09T00:19:17.024Z,102328.59
2024-05-09T00:21:18.831Z,102328.78
2024-05-09T00:23:20.968Z,102327.06
2024-05-09T00:25:22.678Z,102323.66
2024-05-09T00:27:25.357Z,102333.09
2024-05-09T00:29:27.229Z,102325.06
2024-05-09T00:31:29.101Z,102331.56
2024-05-09T00:33:31.316Z,102324.22
2024-05-09T00:35:33.337Z,102320.59
2024-05-09T00:37:35.312Z,102327.97
2024-05-09T00:39:37.645Z,102326.25
2024-05-09T00:41:39.434Z,102329.00
2024-05-09T00:43:43.937Z,102322.69
2024-05-09T00:45:46.486Z,102319.09
2024-05-09T00:47:48.717Z,102318.41
2024-05-09T00:49:51.243Z,102323.88
2024-05-09T00:51:56.570Z,102312.06
2024-05-09T00:53:58.413Z,102314.13
2024-05-09T00:56:00.545Z,102309.69
2024-05-09T00:58:04.964Z,102309.00
2024-05-09T01:00:22.328Z,102298.22
2024-05-09T01:02:32.684Z,102298.41
2024-05-09T01:04:34.618Z,102303.88
2024-05-09T01:06:36.678Z,102295.84
2024-05-09T01:08:38.683Z,102302.19
2024-05-09T01:10:43.923Z,102304.06
2024-05-09T01:12:46.945Z,102302.38
2024-05-09T01:14:49.036Z,102303.22
2024-05-09T01:16:51.169Z,102300.66
2024-05-09T01:18:53.063Z,102301.50
2024-05-09T01:20:54.886Z,102306.34
2024-05-09T01:22:58.052Z,102301.88
2024-05-09T01:24:59.962Z,102294.72
2024-05-09T01:27:01.681Z,102288.53
2024-05-09T01:29:03.711Z,102286.84
2024-05-09T01:31:05.560Z,102288.06
2024-05-09T01:33:09.874Z,102285.31
2024-05-09T01:35:13.474Z,102281.72
2024-05-09T01:37:15.197Z,102283.41
2024-05-09T01:39:17.191Z,102292.88
2024-05-09T01:41:19.117Z,102289.06
2024-05-09T01:43:20.976Z,102289.94
2024-05-09T01:45:22.731Z,102286.34
2024-05-09T01:47:24.714Z,102287.41
2024-05-09T01:49:26.885Z,102283.97
2024-05-09T01:51:28.727Z,102283.78
2024-05-09T01:53:30.540Z,102285.00
2024-05-09T01:55:32.385Z,102286.03
2024-05-09T01:57:34.167Z,102287.91
2024-05-09T01:59:35.952Z,102282.59
2024-05-09T02:01:56.055Z,102284.69
2024-05-09T02:03:59.865Z,102280.22
2024-05-09T02:06:01.912Z,102282.13
2024-05-09T02:08:04.788Z,102274.94
2024-05-09T02:10:10.980Z,102278.53
2024-05-09T02:12:18.467Z,102280.41
2024-05-09T02:14:20.680Z,102276.66
2024-05-09T02:16:22.395Z,102276.81
2024-05-09T02:18:27.275Z,102273.25
2024-05-09T02:20:36.323Z,102272.56
2024-05-09T02:22:38.980Z,102273.78
2024-05-09T02:24:40.715Z,102282.50
2024-05-09T02:26:42.396Z,102279.94
2024-05-09T02:28:44.112Z,102273.78
2024-05-09T02:30:45.815Z,102273.78
2024-05-09T02:32:47.764Z,102276.53
2024-05-09T02:34:49.782Z,102271.06
2024-05-09T02:36:51.505Z,102265.56
2024-05-09T02:38:53.397Z,102268.13
2024-05-09T02:40:55.171Z,102268.13
2024-05-09T02:42:57.048Z,102259.19
2024-05-09T02:44:58.857Z,102263.50
2024-05-09T02:47:00.589Z,102266.22
2024-05-09T02:49:02.435Z,102269.31
2024-05-09T02:51:04.700Z,102258.19
2024-05-09T02:53:12.634Z,102268.31
2024-05-09T02:55:14.567Z,102255.78
2024-05-09T02:57:16.267Z,102246.72
2024-05-09T02:59:17.968Z,102253.03
2024-05-09T03:01:19.946Z,102260.25
2024-05-09T03:03:22.224Z,102252.19
2024-05-09T03:05:24.219Z,102248.59
2024-05-09T03:07:25.902Z,102257.69
2024-05-09T03:09:27.988Z,102253.22
2024-05-09T03:11:29.951Z,102258.53
2024-05-09T03:13:31.882Z,102245.66
2024-05-09T03:15:33.613Z,102246.72
2024-05-09T03:17:35.764Z,102250.47
2024-05-09T03:19:37.776Z,102245.84
2024-05-09T03:21:40.301Z,102245.84
2024-05-09T03:23:42.909Z,102247.91
2024-05-09T03:25:44.811Z,102244.50
2024-05-09T03:27:46.629Z,102248.94
2024-05-09T03:29:48.430Z,102242.13
2024-05-09T03:31:50.255Z,102247.41
2024-05-09T03:33:52.253Z,102241.09
2024-05-09T03:35:54.073Z,102244.66
2024-05-09T03:37:56.036Z,102249.13
2024-05-09T03:39:57.732Z,102243.00
2024-05-09T03:41:59.554Z,102250.16
2024-05-09T03:44:01.268Z,102230.97
2024-05-09T03:46:03.147Z,102236.28
2024-05-09T03:48:05.239Z,102232.88
2024-05-09T03:50:12.133Z,102243.00
2024-05-09T03:52:17.228Z,102240.25
2024-05-09T03:54:18.973Z,102243.16
2024-05-09T03:56:20.805Z,102247.78
2024-05-09T03:58:22.794Z,102240.78
2024-05-09T04:00:31.442Z,102244.38
2024-05-09T04:02:42.837Z,102239.25
2024-05-09T04:04:45.040Z,102247.47
2024-05-09T04:06:46.858Z,102257.41
2024-05-09T04:08:48.710Z,102260.16
2024-05-09T04:10:50.530Z,102261.00
2024-05-09T04:12:53.256Z,102259.28
2024-05-09T04:14:56.006Z,102254.66
2024-05-09T04:16:57.721Z,102261.84
2024-05-09T04:18:59.479Z,102256.53
2024-05-09T04:21:02.934Z,102260.31
2024-05-09T04:23:05.701Z,102264.09
2024-05-09T04:25:07.596Z,102256.91
2024-05-09T04:27:09.285Z,102258.78
2024-05-09T04:29:13.648Z,102256.06
2024-05-09T04:31:15.379Z,102256.41
2024-05-09T04:33:19.258Z,102266.16
2024-05-09T04:35:22.448Z,102262.56
2024-05-09T04:37:25.518Z,102259.81
2024-05-09T04:39:27.535Z,102258.13
2024-05-09T04:41:30.072Z,102258.97
2024-05-09T04:43:33.280Z,102260.00
2024-05-09T04:45:35.698Z,102258.31
2024-05-09T04:47:37.826Z,102257.44
2024-05-09T04:49:39.737Z,102250.28
2024-05-09T04:51:41.908Z,102254.03
2024-05-09T04:53:43.723Z,102250.44
2024-05-09T04:55:45.968Z,102250.44
2024-05-09T04:57:48.116Z,102253.38
2024-05-09T04:59:49.821Z,102251.84
2024-05-09T05:01:51.688Z,102249.28
2024-05-09T05:03:55.879Z,102244.81
2024-05-09T05:05:58.049Z,102245.00
2024-05-09T05:08:00.770Z,102250.28
2024-05-09T05:10:04.480Z,102241.41
2024-05-09T05:12:30.739Z,102246.72
2024-05-09T05:14:32.567Z,102245.84
2024-05-09T05:16:34.355Z,102252.38
2024-05-09T05:18:36.178Z,102264.16
2024-05-09T05:20:38.545Z,102266.06
2024-05-09T05:22:43.119Z,102260.75
2024-05-09T05:24:44.860Z,102261.59
2024-05-09T05:26:46.558Z,102263.50
2024-05-09T05:28:48.344Z,102266.41
2024-05-09T05:30:50.382Z,102271.19
2024-05-09T05:32:52.442Z,102264.03
2024-05-09T05:34:54.300Z,102268.47
2024-05-09T05:36:55.993Z,102269.16
2024-05-09T05:38:57.744Z,102268.28
2024-05-09T05:40:59.644Z,102275.47
2024-05-09T05:43:01.396Z,102272.75
2024-05-09T05:45:04.603Z,102276.50
2024-05-09T05:47:07.964Z,102283.88
2024-05-09T05:49:09.961Z,102281.97
2024-05-09T05:51:12.201Z,102289.19
2024-05-09T05:53:14.271Z,102291.25
2024-05-09T05:55:16.144Z,102284.91
2024-05-09T05:57:19.073Z,102293.13
2024-05-09T05:59:23.995Z,102294.16
2024-05-09T06:01:25.811Z,102285.44
2024-05-09T06:03:29.321Z,102293.28
2024-05-09T06:05:31.250Z,102296.03
2024-05-09T06:07:33.158Z,102283.22
2024-05-09T06:09:34.897Z,102290.38
2024-05-09T06:11:36.757Z,102292.09
2024-05-09T06:13:42.893Z,102291.25
2024-05-09T06:15:44.691Z,102298.59
2024-05-09T06:17:46.634Z,102295.00
2024-05-09T06:19:49.066Z,102298.75
2024-05-09T06:21:50.942Z,102297.09
2024-05-09T06:23:53.440Z,102301.50
2024-05-09T06:25:55.253Z,102304.41
2024-05-09T06:27:57.331Z,102307.34
2024-05-09T06:29:59.027Z,102301.03
2024-05-09T06:32:00.928Z,102305.47
2024-05-09T06:34:02.969Z,102306.50
2024-05-09T06:36:05.646Z,102301.03
2024-05-09T06:38:10.516Z,102300.84
2024-05-09T06:40:14.548Z,102302.75
2024-05-09T06:42:16.480Z,102297.44
2024-05-09T06:44:18.672Z,102299.13
2024-05-09T06:46:20.699Z,102301.19
2024-05-09T06:48:22.966Z,102302.91
2024-05-09T06:50:28.327Z,102303.09
2024-05-09T06:52:33.460Z,102308.75
2024-05-09T06:54:35.202Z,102310.59
2024-05-09T06:56:37.732Z,102314.41
2024-05-09T06:58:39.618Z,102319.00
2024-05-09T07:00:42.234Z,102318.34
2024-05-09T07:02:44.442Z,102328.09
2024-05-09T07:04:46.388Z,102322.75
2024-05-09T07:06:48.111Z,102319.19
2024-05-09T07:08:51.915Z,102323.63
2024-05-09T07:10:54.282Z,102331.84
2024-05-09T07:12:56.085Z,102321.75
2024-05-09T07:14:57.815Z,102319.19
2024-05-09T07:16:59.815Z,102328.22
2024-05-09T07:19:02.067Z,102326.53
2024-05-09T07:21:04.126Z,102329.09
2024-05-09T07:23:08.983Z,102330.13
2024-05-09T07:25:10.762Z,102327.75
2024-05-09T07:27:12.741Z,102326.91
2024-05-09T07:29:14.454Z,102327.91
2024-05-09T07:31:16.175Z,102332.38
2024-05-09T07:33:20.826Z,102326.03
2024-05-09T07:35:24.257Z,102327.75
2024-05-09T07:37:25.939Z,102331.50
2024-05-09T07:39:28.471Z,102327.75
2024-05-09T07:41:30.737Z,102325.84
2024-05-09T07:43:32.520Z,102336.81
2024-05-09T07:49:11.924Z,102318.69
2024-05-09T07:51:51.331Z,102315.94
2024-05-09T07:53:30.593Z,102326.03
2024-05-09T07:54:45.726Z,102323.47
2024-05-09T07:56:47.851Z,102329.81
2024-05-09T07:58:51.022Z,102329.81
2024-05-09T08:00:56.050Z,102335.28
2024-05-09T08:02:58.382Z,102332.56
2024-05-09T08:05:00.225Z,102326.91
2024-05-09T08:07:02.119Z,102325.84
2024-05-09T08:09:08.102Z,102325.84
2024-05-09T08:11:13.245Z,102325.84
2024-05-09T08:13:15.120Z,102326.03
2024-05-09T08:15:16.893Z,102322.09
2024-05-09T08:17:18.680Z,102327.56
2024-05-09T08:19:20.725Z,102330.47
2024-05-09T08:21:22.521Z,102329.63
2024-05-09T08:23:24.511Z,102332.56
2024-05-09T08:25:26.477Z,102337.84
2024-05-09T08:27:28.286Z,102331.69
2024-05-09T08:29:30.800Z,102326.03
2024-05-09T08:31:37.356Z,102328.59
2024-05-09T08:33:49.155Z,102320.53
2024-05-09T08:35:50.988Z,102324.16
2024-05-09T08:37:53.632Z,102325.84
2024-05-09T08:39:55.744Z,102314.91
2024-05-09T08:41:57.613Z,102327.56
2024-05-09T08:43:59.331Z,102319.34
2024-05-09T08:46:03.196Z,102313.88
2024-05-09T08:48:08.207Z,102322.09
2024-05-09T08:50:23.463Z,102316.78
2024-05-09T08:52:30.821Z,102313.22
2024-05-09T08:54:32.625Z,102311.31
2024-05-09T08:56:35.500Z,102300.38
2024-05-09T08:58:37.739Z,102302.25
2024-05-09T09:00:42.004Z,102299.53
2024-05-09T09:02:45.106Z,102296.78
2024-05-09T09:05:00.092Z,102294.88
2024-05-09T09:07:03.552Z,102292.16
2024-05-09T09:09:05.703Z,102287.50
2024-05-09T09:11:07.920Z,102287.34
2024-05-09T09:13:11.427Z,102277.44
2024-05-09T09:15:13.248Z,102279.31
2024-05-09T09:17:16.319Z,102282.03
2024-05-09T09:19:18.595Z,102286.50
2024-05-09T09:21:20.480Z,102282.03
2024-05-09T09:23:22.773Z,102280.19
2024-05-09T09:25:24.810Z,102289.41
2024-05-09T09:27:26.720Z,102289.41
2024-05-09T09:29:28.497Z,102285.81
2024-05-09T09:31:30.824Z,102292.16
2024-05-09T09:33:35.373Z,102280.72
2024-05-09T09:35:40.309Z,102281.38
2024-05-09T09:37:45.405Z,102282.22
2024-05-09T09:39:49.194Z,102276.06
2024-05-09T09:41:51.854Z,102268.53
2024-05-09T09:43:54.622Z,102267.50
2024-05-09T09:45:59.732Z,102262.03
2024-05-09T09:48:02.721Z,102269.22
2024-05-09T09:50:11.826Z,102269.22
2024-05-09T09:52:16.707Z,102269.56
2024-05-09T09:54:20.091Z,102274.69
2024-05-09T09:56:23.785Z,102271.09
2024-05-09T09:58:26.256Z,102268.34
2024-05-09T10:00:32.950Z,102269.22
2024-05-09T10:02:35.933Z,102272.81
2024-05-09T10:04:38.347Z,102267.16
2024-05-09T10:06:44.008Z,102272.28
2024-05-09T10:08:47.930Z,102269.00
2024-05-09T10:10:50.559Z,102266.59
2024-05-09T10:12:58.561Z,102268.63
2024-05-09T10:15:07.352Z,102267.72
2024-05-09T10:17:09.130Z,102265.28
2024-05-09T10:19:26.659Z,102269.03
2024-05-09T10:21:28.459Z,102259.25
2024-05-09T10:23:32.468Z,102251.31
2024-05-09T10:25:34.472Z,102261.41
2024-05-09T10:27:36.499Z,102259.19
2024-05-09T10:29:38.219Z,102257.41
2024-05-09T10:31:47.821Z,102258.56
2024-05-09T10:33:52.541Z,102258.00
2024-05-09T10:35:55.139Z,102253.03
2024-05-09T10:37:57.551Z,102248.69
2024-05-09T10:40:00.023Z,102254.50
2024-05-09T10:42:02.311Z,102249.28
2024-05-09T10:44:11.364Z,102236.28
2024-05-09T10:46:14.407Z,102237.59
2024-05-09T10:48:16.415Z,102232.59
2024-05-09T10:50:25.473Z,102226.56
2024-05-09T10:52:30.674Z,102223.44
2024-05-09T10:54:39.411Z,102227.53
2024-05-09T10:56:42.121Z,102218.91
2024-05-09T10:58:44.042Z,102217.72
2024-05-09T11:00:46.030Z,102214.59
2024-05-09T11:02:48.335Z,102213.19
2024-05-09T11:04:50.256Z,102199.09
2024-05-09T11:06:52.232Z,102206.94
2024-05-09T11:08:54.105Z,102195.78
2024-05-09T11:10:56.531Z,102195.22
2024-05-09T11:12:58.465Z,102201.00
2024-05-09T11:15:00.205Z,102194.25
2024-05-09T11:17:07.306Z,102194.56
2024-05-09T11:19:14.104Z,102197.78
2024-05-09T11:21:19.340Z,102192.97
2024-05-09T11:23:22.549Z,102198.06
2024-05-09T11:25:24.413Z,102194.94
2024-05-09T11:27:26.256Z,102198.34
2024-05-09T11:29:44.753Z,102193.13
2024-05-09T11:31:47.530Z,102182.81
2024-05-09T11:33:49.643Z,102183.47
2024-05-09T11:35:51.421Z,102183.06
2024-05-09T11:37:53.269Z,102176.56
2024-05-09T11:39:55.057Z,102174.25
2024-05-09T11:41:57.789Z,102172.38
2024-05-09T11:43:59.822Z,102173.03
2024-05-09T11:46:03.543Z,102167.34
2024-05-09T11:48:06.111Z,102160.66
2024-05-09T11:50:12.970Z,102156.84
2024-05-09T11:52:18.078Z,102159.00
2024-05-09T11:54:19.785Z,102161.56
2024-05-09T11:56:22.167Z,102149.34
2024-05-09T11:58:24.001Z,102153.81
2024-05-09T12:00:33.964Z,102142.81
2024-05-09T12:02:39.162Z,102134.19
2024-05-09T12:04:41.035Z,102132.69
2024-05-09T12:06:42.954Z,102126.78
2024-05-09T12:08:44.794Z,102128.50
2024-05-09T12:10:47.168Z,102128.31
2024-05-09T12:12:49.183Z,102125.56
2024-05-09T12:14:50.872Z,102123.47
2024-05-09T12:16:52.649Z,102114.00
2024-05-09T12:18:54.434Z,102122.69
2024-05-09T12:20:56.646Z,102104.31
2024-05-09T12:22:58.704Z,102104.97
2024-05-09T12:25:00.512Z,102104.97
2024-05-09T12:27:02.339Z,102108.34
2024-05-09T12:29:04.123Z,102101.81
2024-05-09T12:31:05.908Z,102097.16
2024-05-09T12:33:09.730Z,102100.78
2024-05-09T12:35:11.757Z,102097.84
2024-05-09T12:37:13.922Z,102091.47
2024-05-09T12:39:15.755Z,102088.34
2024-05-09T12:41:17.759Z,102091.09
2024-05-09T12:43:19.819Z,102090.03
2024-05-09T12:45:21.852Z,102079.72
2024-05-09T12:47:23.666Z,102083.09
2024-05-09T12:49:25.692Z,102083.75
2024-05-09T12:51:27.708Z,102074.47
2024-05-09T12:53:29.391Z,102074.25
2024-05-09T12:55:37.605Z,102076.81
2024-05-09T12:57:46.461Z,102062.22
2024-05-09T12:59:48.293Z,102061.16
2024-05-09T13:01:50.120Z,102065.63
2024-05-09T13:03:52.231Z,102063.91
2024-05-09T13:05:54.606Z,102054.63
2024-05-09T13:07:57.132Z,102058.88
2024-05-09T13:09:59.042Z,102048.53
2024-05-09T13:12:00.791Z,102043.88
2024-05-09T13:14:02.893Z,102041.59
2024-05-09T13:16:05.016Z,102048.81
2024-05-09T13:18:07.563Z,102042.22
2024-05-09T13:20:15.165Z,102036.53
2024-05-09T13:22:24.713Z,102028.28
2024-05-09T13:24:26.413Z,102030.84
2024-05-09T13:26:28.136Z,102029.78
2024-05-09T13:28:33.798Z,102034.47
2024-05-09T13:30:40.331Z,102026.22
2024-05-09T13:32:44.107Z,102011.59
2024-05-09T13:34:45.894Z,102012.25
2024-05-09T13:36:47.714Z,102011.59
2024-05-09T13:38:49.612Z,102011.59
2024-05-09T13:40:51.579Z,102008.00
2024-05-09T13:42:53.805Z,102010.97
2024-05-09T13:44:55.763Z,102000.38
2024-05-09T13:46:58.048Z,101998.00
2024-05-09T13:48:59.932Z,102000.75
2024-05-09T13:51:01.759Z,102000.75
2024-05-09T13:53:06.707Z,101993.56
2024-05-09T13:55:10.920Z,101992.72
2024-05-09T13:57:13.079Z,101988.25
2024-05-09T13:59:14.777Z,101982.13
2024-05-09T14:01:16.850Z,101986.75
2024-05-09T14:03:20.403Z,101979.78
2024-05-09T14:05:23.060Z,101969.19
2024-05-09T14:07:25.053Z,101965.78
2024-05-09T14:09:28.045Z,101963.22
2024-05-09T14:11:29.886Z,101972.06
2024-05-09T14:13:31.651Z,101967.81
2024-05-09T14:15:33.429Z,101967.19
2024-05-09T14:17:35.424Z,101958.50
2024-05-09T14:19:37.538Z,101958.03
2024-05-09T14:21:39.414Z,101956.16
2024-05-09T14:23:41.263Z,101950.84
2024-05-09T14:25:44.590Z,101956.34
2024-05-09T14:27:47.297Z,101949.56
2024-05-09T14:29:49.186Z,101949.56
2024-05-09T14:31:50.936Z,101950.59
2024-05-09T14:33:52.948Z,101950.59
2024-05-09T14:35:55.145Z,101942.53
2024-05-09T14:37:56.953Z,101934.09
2024-05-09T14:39:59.275Z,101932.44
2024-05-09T14:42:01.080Z,101927.13
2024-05-09T14:44:02.912Z,101929.88
2024-05-09T14:46:05.102Z,101928.38
2024-05-09T14:48:07.840Z,101941.06
2024-05-09T14:50:16.795Z,101934.91
2024-05-09T14:52:25.138Z,101926.03
2024-05-09T14:54:26.886Z,101931.53
2024-05-09T14:56:28.875Z,101935.31
2024-05-09T14:58:33.376Z,101934.66
2024-05-09T15:00:41.517Z,101930.41
2024-05-09T15:02:46.592Z,101929.78
2024-05-09T15:04:49.812Z,101920.66
2024-05-09T15:06:51.740Z,101921.03
2024-05-09T15:08:57.389Z,101917.66
2024-05-09T15:10:59.212Z,101918.69
2024-05-09T15:13:01.441Z,101920.78
2024-05-09T15:15:03.886Z,101920.34
2024-05-09T15:17:05.989Z,101913.34
2024-05-09T15:19:08.880Z,101911.63
2024-05-09T15:21:10.842Z,101905.69
2024-05-09T15:23:12.632Z,101912.22
2024-05-09T15:25:14.623Z,101906.94
2024-05-09T15:27:17.303Z,101915.38
2024-05-09T15:29:19.140Z,101908.38
2024-05-09T15:31:20.847Z,101909.25
2024-05-09T15:33:22.841Z,101901.22
2024-05-09T15:35:24.602Z,101910.47
2024-05-09T15:37:27.134Z,101905.19
2024-05-09T15:39:30.356Z,101890.81
2024-05-09T15:41:32.121Z,101891.84
2024-05-09T15:43:36.475Z,101905.78
2024-05-09T15:45:39.299Z,101902.34
2024-05-09T15:47:41.540Z,101906.38
2024-05-09T15:49:43.531Z,101889.22
2024-05-09T15:51:45.590Z,101899.16
2024-05-09T15:53:47.506Z,101890.09
2024-05-09T15:55:49.511Z,101904.84
2024-05-09T15:57:51.305Z,101911.38
2024-05-09T15:59:53.082Z,101902.31
2024-05-09T16:01:55.642Z,101900.78
2024-05-09T16:03:57.600Z,101899.13
2024-05-09T16:05:59.570Z,101899.13
2024-05-09T16:08:01.369Z,101896.38
2024-05-09T16:10:06.557Z,101896.56
2024-05-09T16:12:08.592Z,101889.38
2024-05-09T16:14:10.401Z,101897.81
2024-05-09T16:16:12.427Z,101888.06
2024-05-09T16:18:14.308Z,101887.22
2024-05-09T16:20:25.754Z,101884.66
2024-05-09T16:22:35.935Z,101881.94
2024-05-09T16:24:37.766Z,101881.94
2024-05-09T16:26:39.511Z,101876.63
2024-05-09T16:28:41.252Z,101879.38
2024-05-09T16:30:43.084Z,101880.41
2024-05-09T16:32:46.422Z,101881.44
2024-05-09T16:34:48.448Z,101882.31
2024-05-09T16:36:51.484Z,101880.81
2024-05-09T16:38:53.240Z,101878.06
2024-05-09T16:40:55.186Z,101878.06
2024-05-09T16:42:56.958Z,101873.63
2024-05-09T16:44:58.713Z,101868.31
2024-05-09T16:47:00.525Z,101872.13
2024-05-09T16:49:02.958Z,101869.38
2024-05-09T16:51:05.026Z,101868.53
2024-05-09T16:53:07.228Z,101863.03
2024-05-09T16:55:09.349Z,101849.31
2024-05-09T16:57:11.163Z,101847.63
2024-05-09T16:59:13.203Z,101845.09
2024-05-09T17:01:15.166Z,101844.91
2024-05-09T17:03:17.599Z,101844.91
2024-05-09T17:05:21.645Z,101834.13
2024-05-09T17:07:23.538Z,101845.09
2024-05-09T17:09:25.454Z,101836.19
2024-05-09T17:11:27.230Z,101839.59
2024-05-09T17:13:29.105Z,101839.78
2024-05-09T17:15:31.977Z,101842.53
2024-05-09T17:17:34.333Z,101848.22
2024-05-09T17:19:40.528Z,101844.59
2024-05-09T17:21:42.292Z,101830.22
2024-05-09T17:23:44.061Z,101828.31
2024-05-09T17:25:45.894Z,101831.75
2024-05-09T17:27:48.095Z,101830.91
2024-05-09T17:29:49.860Z,101837.25
2024-05-09T17:31:51.639Z,101831.94
2024-05-09T17:33:53.707Z,101834.66
2024-05-09T17:35:55.572Z,101831.06
2024-05-09T17:37:58.558Z,101824.72
2024-05-09T17:40:00.356Z,101820.47
2024-05-09T17:42:02.096Z,101824.09
2024-05-09T17:44:03.953Z,101819.66
2024-05-09T17:46:07.884Z,101834.38
2024-05-09T17:48:11.220Z,101824.47
2024-05-09T17:50:20.959Z,101835.47
2024-05-09T17:52:28.575Z,101838.19
2024-05-09T17:54:30.439Z,101833.75
2024-05-09T17:56:32.334Z,101841.97
2024-05-09T17:58:34.365Z,101831.84
2024-05-09T18:00:39.992Z,101835.66
2024-05-09T18:02:44.024Z,101832.91
2024-05-09T18:04:45.925Z,101836.50
2024-05-09T18:06:48.056Z,101835.47
2024-05-09T18:08:49.790Z,101831.00
2024-05-09T18:10:52.699Z,101829.31
2024-05-09T18:12:56.147Z,101822.97
2024-05-09T18:14:59.109Z,101818.31
2024-05-09T18:17:00.899Z,101819.19
2024-05-09T18:19:02.889Z,101825.31
2024-05-09T18:21:04.860Z,101819.00
2024-05-09T18:23:06.571Z,101825.97
2024-05-09T18:25:08.539Z,101828.06
2024-05-09T18:27:10.931Z,101833.16
2024-05-09T18:29:12.673Z,101824.94
2024-05-09T18:31:15.457Z,101823.91
2024-05-09T18:33:17.384Z,101825.97
2024-05-09T18:35:19.239Z,101824.09
2024-05-09T18:37:21.032Z,101820.47
2024-05-09T18:39:23.006Z,101818.81
2024-05-09T18:41:24.748Z,101826.84
2024-05-09T18:43:31.568Z,101824.09
2024-05-09T18:45:40.275Z,101826.84
2024-05-09T18:47:42.320Z,101834.38
2024-05-09T18:49:44.405Z,101828.91
2024-05-09T18:51:46.195Z,101842.81
2024-05-09T18:53:48.111Z,101841.97
2024-05-09T18:55:49.877Z,101840.28
2024-05-09T18:57:51.695Z,101840.94
2024-05-09T18:59:53.551Z,101841.13
2024-05-09T19:01:55.382Z,101836.50
2024-05-09T19:03:57.378Z,101847.28
2024-05-09T19:05:59.396Z,101840.06
2024-05-09T19:08:01.574Z,101842.81
2024-05-09T19:10:03.620Z,101839.03
2024-05-09T19:12:06.514Z,101846.44
2024-05-09T19:14:08.516Z,101844.72
2024-05-09T19:16:10.708Z,101845.56
2024-05-09T19:18:13.906Z,101841.13
2024-05-09T19:20:24.977Z,101848.50
2024-05-09T19:22:31.721Z,101845.94
2024-05-09T19:24:33.661Z,101841.31
2024-05-09T19:26:35.638Z,101840.47
2024-05-09T19:28:37.403Z,101846.97
2024-05-09T19:30:41.970Z,101839.63
2024-05-09T19:32:45.167Z,101849.53
2024-05-09T19:34:46.986Z,101847.66
2024-05-09T19:36:48.807Z,101846.16
2024-05-09T19:38:51.538Z,101847.66
2024-05-09T19:40:53.411Z,101847.66
2024-05-09T19:42:55.265Z,101843.88
2024-05-09T19:44:57.201Z,101848.50
2024-05-09T19:46:59.046Z,101850.22
2024-05-09T19:49:03.170Z,101852.13
2024-05-09T19:51:05.538Z,101853.16
2024-05-09T19:53:08.541Z,101858.63
2024-05-09T19:55:10.435Z,101859.47
2024-05-09T19:57:14.595Z,101860.50
2024-05-09T19:59:16.520Z,101870.44
2024-05-09T20:01:18.405Z,101872.16
2024-05-09T20:03:20.321Z,101863.91
2024-05-09T20:05:22.480Z,101872.16
2024-05-09T20:07:24.311Z,101869.59
2024-05-09T20:09:26.082Z,101871.13
2024-05-09T20:11:27.915Z,101871.13
2024-05-09T20:13:29.717Z,101873.47
2024-05-09T20:15:32.328Z,101876.22
2024-05-09T20:17:34.294Z,101875.34
2024-05-09T20:19:36.167Z,101875.53
2024-05-09T20:21:44.346Z,101881.69
2024-05-09T20:23:46.079Z,101875.34
2024-05-09T20:25:47.891Z,101874.69
2024-05-09T20:27:49.645Z,101876.59
2024-05-09T20:29:51.418Z,101880.00
2024-05-09T20:31:53.197Z,101873.47
2024-05-09T20:33:55.134Z,101878.28
2024-05-09T20:36:01.644Z,101878.97
2024-05-09T20:38:04.702Z,101872.59
2024-05-09T20:40:12.031Z,101873.66
2024-05-09T20:42:17.616Z,101871.56
2024-05-09T20:44:19.423Z,101877.88
2024-05-09T20:46:21.329Z,101876.22
2024-05-09T20:48:24.692Z,101879.78
2024-05-09T20:50:35.943Z,101877.06
2024-05-09T20:52:41.723Z,101883.38
2024-05-09T20:54:43.766Z,101885.28
2024-05-09T20:56:45.487Z,101878.97
2024-05-09T20:58:50.474Z,101883.38
2024-05-09T21:00:52.442Z,101881.03
2024-05-09T21:02:54.277Z,101886.13
2024-05-09T21:04:56.460Z,101882.34
2024-05-09T21:06:58.440Z,101876.00
2024-05-09T21:09:00.160Z,101879.78
2024-05-09T21:11:02.518Z,101878.56
2024-05-09T21:13:05.663Z,101877.69
2024-05-09T21:15:08.556Z,101875.66
2024-05-09T21:17:10.639Z,101875.66
2024-05-09T21:19:12.534Z,101872.22
2024-05-09T21:21:14.494Z,101877.53
2024-05-09T21:23:16.383Z,101876.69
2024-05-09T21:25:18.279Z,101875.81
2024-05-09T21:27:20.220Z,101873.06
2024-05-09T21:29:21.983Z,101874.13
2024-05-09T21:31:23.795Z,101880.28
2024-05-09T21:33:25.637Z,101880.28
2024-05-09T21:35:27.636Z,101873.06
2024-05-09T21:37:29.310Z,101873.06
2024-05-09T21:39:31.227Z,101870.16
2024-05-09T21:41:33.159Z,101866.56
2024-05-09T21:43:35.060Z,101867.44
2024-05-09T21:45:37.269Z,101866.56
2024-05-09T21:47:42.306Z,101863.13
2024-05-09T21:49:44.478Z,101868.47
2024-05-09T21:51:46.216Z,101867.44
2024-05-09T21:53:48.876Z,101865.72
2024-05-09T21:55:50.699Z,101854.91
2024-05-09T21:57:52.548Z,101866.72
2024-05-09T21:59:54.331Z,101875.81
2024-05-09T22:01:56.217Z,101863.13
2024-05-09T22:03:58.299Z,101872.41
2024-05-09T22:06:00.549Z,101878.75
2024-05-09T22:08:02.447Z,101873.47
2024-05-09T22:10:09.918Z,101872.22
2024-05-09T22:12:17.559Z,101876.50
2024-05-09T22:14:21.152Z,101874.78
2024-05-09T22:16:23.299Z,101881.97
2024-05-09T22:18:25.185Z,101877.53
2024-05-09T22:20:34.424Z,101885.75
2024-05-09T22:22:39.729Z,101876.84
2024-05-09T22:24:41.454Z,101887.66
2024-05-09T22:26:43.135Z,101892.28
2024-05-09T22:28:44.932Z,101882.19
2024-05-09T22:30:47.646Z,101877.06
2024-05-09T22:32:49.682Z,101884.25
2024-05-09T22:34:51.426Z,101883.38
2024-05-09T22:36:53.740Z,101879.59
2024-05-09T22:38:55.440Z,101892.28
2024-05-09T22:40:57.139Z,101878.75
2024-05-09T22:42:58.921Z,101885.09
2024-05-09T22:45:00.590Z,101877.69
2024-05-09T22:47:02.794Z,101871.56
2024-05-09T22:49:05.042Z,101875.81
2024-05-09T22:51:06.954Z,101870.53
2024-05-09T22:53:08.665Z,101877.88
2024-05-09T22:55:10.423Z,101881.31
2024-05-09T22:57:12.196Z,101872.41
2024-05-09T22:59:13.932Z,101876.84
2024-05-09T23:01:16.125Z,101884.25
2024-05-09T23:03:20.846Z,101875.16
2024-05-09T23:05:23.189Z,101877.88
2024-05-09T23:07:25.261Z,101869.66
2024-05-09T23:09:27.022Z,101882.34
2024-05-09T23:11:29.113Z,101870.53
2024-05-09T23:13:31.254Z,101870.34
2024-05-09T23:15:33.100Z,101871.56
2024-05-09T23:17:35.188Z,101872.03
2024-05-09T23:19:37.282Z,101877.53
2024-05-09T23:21:40.672Z,101874.78
2024-05-09T23:23:42.506Z,101874.78
2024-05-09T23:25:45.377Z,101874.78